sensor_id;sensor_type;location;lat;lon;timestamp;P1;durP1;ratioP1;P2;durP2;ratioP2
23838;SDS011;12100;44.384;20.272;2023-01-10T00:00:23;8.75;;;6.15;;
23838;SDS011;12100;44.384;20.272;2023-01-10T00:02:50;7.53;;;5.85;;
23838;SDS011;12100;44.384;20.272;2023-01-10T00:05:16;10.40;;;6.95;;
23838;SDS011;12100;44.384;20.272;2023-01-10T00:07:43;9.05;;;6.68;;
23838;SDS011;12100;44.384;20.272;2023-01-10T00:10:09;7.90;;;5.30;;
23838;SDS011;12100;44.384;20.272;2023-01-10T00:12:35;8.30;;;6.03;;
23838;SDS011;12100;44.384;20.272;2023-01-10T00:15:20;6.72;;;5.80;;
23838;SDS011;12100;44.384;20.272;2023-01-10T00:17:46;7.38;;;5.80;;
23838;SDS011;12100;44.384;20.272;2023-01-10T00:20:12;7.10;;;5.95;;
23838;SDS011;12100;44.384;20.272;2023-01-10T00:22:38;6.53;;;5.53;;
23838;SDS011;12100;44.384;20.272;2023-01-10T00:25:04;6.85;;;6.15;;
23838;SDS011;12100;44.384;20.272;2023-01-10T00:27:30;8.43;;;5.68;;
23838;SDS011;12100;44.384;20.272;2023-01-10T00:29:56;8.32;;;5.90;;
23838;SDS011;12100;44.384;20.272;2023-01-10T00:32:28;9.82;;;6.88;;
23838;SDS011;12100;44.384;20.272;2023-01-10T00:34:54;7.25;;;5.88;;
23838;SDS011;12100;44.384;20.272;2023-01-10T00:37:19;8.10;;;5.93;;
23838;SDS011;12100;44.384;20.272;2023-01-10T00:39:45;7.78;;;6.28;;
23838;SDS011;12100;44.384;20.272;2023-01-10T00:42:11;8.25;;;5.57;;
23838;SDS011;12100;44.384;20.272;2023-01-10T00:44:56;6.80;;;5.72;;
23838;SDS011;12100;44.384;20.272;2023-01-10T00:47:21;8.32;;;6.47;;
23838;SDS011;12100;44.384;20.272;2023-01-10T00:49:47;7.22;;;5.93;;
23838;SDS011;12100;44.384;20.272;2023-01-10T00:52:13;6.68;;;3.85;;
23838;SDS011;12100;44.384;20.272;2023-01-10T00:54:38;6.75;;;4.47;;
23838;SDS011;12100;44.384;20.272;2023-01-10T00:57:04;6.82;;;5.68;;
23838;SDS011;12100;44.384;20.272;2023-01-10T00:59:30;7.47;;;6.03;;
23838;SDS011;12100;44.384;20.272;2023-01-10T01:01:55;6.40;;;5.28;;
23838;SDS011;12100;44.384;20.272;2023-01-10T01:04:21;5.60;;;5.05;;
23838;SDS011;12100;44.384;20.272;2023-01-10T01:06:47;6.70;;;5.60;;
23838;SDS011;12100;44.384;20.272;2023-01-10T01:09:14;6.55;;;4.78;;
23838;SDS011;12100;44.384;20.272;2023-01-10T01:11:40;6.28;;;4.90;;
23838;SDS011;12100;44.384;20.272;2023-01-10T01:14:06;6.93;;;5.53;;
23838;SDS011;12100;44.384;20.272;2023-01-10T01:16:32;6.15;;;4.57;;
23838;SDS011;12100;44.384;20.272;2023-01-10T01:18:58;6.90;;;5.60;;
23838;SDS011;12100;44.384;20.272;2023-01-10T01:21:23;7.07;;;5.63;;
23838;SDS011;12100;44.384;20.272;2023-01-10T01:23:53;5.45;;;4.53;;
23838;SDS011;12100;44.384;20.272;2023-01-10T01:26:24;6.63;;;5.45;;
23838;SDS011;12100;44.384;20.272;2023-01-10T01:28:51;6.47;;;5.50;;
23838;SDS011;12100;44.384;20.272;2023-01-10T01:31:16;6.57;;;5.35;;
23838;SDS011;12100;44.384;20.272;2023-01-10T01:33:42;6.55;;;5.63;;
23838;SDS011;12100;44.384;20.272;2023-01-10T01:36:09;7.07;;;4.50;;
23838;SDS011;12100;44.384;20.272;2023-01-10T01:38:39;6.43;;;5.55;;
23838;SDS011;12100;44.384;20.272;2023-01-10T01:41:05;8.65;;;5.15;;
23838;SDS011;12100;44.384;20.272;2023-01-10T01:44:12;6.35;;;5.25;;
23838;SDS011;12100;44.384;20.272;2023-01-10T01:46:41;5.90;;;4.30;;
23838;SDS011;12100;44.384;20.272;2023-01-10T01:49:18;9.65;;;3.97;;
23838;SDS011;12100;44.384;20.272;2023-01-10T01:51:48;6.90;;;5.20;;
23838;SDS011;12100;44.384;20.272;2023-01-10T01:54:19;6.47;;;5.13;;
23838;SDS011;12100;44.384;20.272;2023-01-10T01:56:46;6.28;;;5.35;;
23838;SDS011;12100;44.384;20.272;2023-01-10T02:01:49;5.38;;;4.88;;
23838;SDS011;12100;44.384;20.272;2023-01-10T02:04:19;6.28;;;4.70;;
23838;SDS011;12100;44.384;20.272;2023-01-10T02:06:50;6.57;;;5.35;;
23838;SDS011;12100;44.384;20.272;2023-01-10T02:11:49;6.37;;;4.80;;
23838;SDS011;12100;44.384;20.272;2023-01-10T02:14:15;5.85;;;4.18;;
23838;SDS011;12100;44.384;20.272;2023-01-10T02:16:43;4.32;;;3.92;;
23838;SDS011;12100;44.384;20.272;2023-01-10T02:19:15;5.90;;;4.80;;
23838;SDS011;12100;44.384;20.272;2023-01-10T02:21:52;6.05;;;5.10;;
23838;SDS011;12100;44.384;20.272;2023-01-10T02:24:30;4.22;;;3.30;;
23838;SDS011;12100;44.384;20.272;2023-01-10T02:27:27;6.18;;;4.75;;
23838;SDS011;12100;44.384;20.272;2023-01-10T02:36:12;5.40;;;4.72;;
23838;SDS011;12100;44.384;20.272;2023-01-10T02:46:39;4.60;;;4.15;;
23838;SDS011;12100;44.384;20.272;2023-01-10T02:49:05;4.85;;;4.00;;
23838;SDS011;12100;44.384;20.272;2023-01-10T02:51:31;5.70;;;4.95;;
23838;SDS011;12100;44.384;20.272;2023-01-10T02:54:06;5.78;;;4.57;;
23838;SDS011;12100;44.384;20.272;2023-01-10T03:10:44;7.60;;;4.68;;
23838;SDS011;12100;44.384;20.272;2023-01-10T03:15:51;5.38;;;4.20;;
23838;SDS011;12100;44.384;20.272;2023-01-10T03:18:21;5.82;;;4.30;;
23838;SDS011;12100;44.384;20.272;2023-01-10T03:20:50;5.00;;;4.10;;
23838;SDS011;12100;44.384;20.272;2023-01-10T03:23:18;5.95;;;4.28;;
23838;SDS011;12100;44.384;20.272;2023-01-10T03:25:47;7.40;;;3.42;;
23838;SDS011;12100;44.384;20.272;2023-01-10T03:28:18;5.45;;;4.50;;
23838;SDS011;12100;44.384;20.272;2023-01-10T03:30:56;3.90;;;3.10;;
23838;SDS011;12100;44.384;20.272;2023-01-10T03:33:32;3.83;;;3.03;;
23838;SDS011;12100;44.384;20.272;2023-01-10T03:36:10;5.88;;;4.10;;
23838;SDS011;12100;44.384;20.272;2023-01-10T03:39:03;4.00;;;3.30;;
23838;SDS011;12100;44.384;20.272;2023-01-10T03:49:53;4.55;;;4.13;;
23838;SDS011;12100;44.384;20.272;2023-01-10T03:52:25;3.80;;;3.33;;
23838;SDS011;12100;44.384;20.272;2023-01-10T03:54:52;3.85;;;3.45;;
23838;SDS011;12100;44.384;20.272;2023-01-10T03:57:21;3.67;;;3.38;;
23838;SDS011;12100;44.384;20.272;2023-01-10T03:59:49;4.32;;;3.63;;
23838;SDS011;12100;44.384;20.272;2023-01-10T04:02:22;4.75;;;3.85;;
23838;SDS011;12100;44.384;20.272;2023-01-10T04:04:51;3.72;;;3.30;;
23838;SDS011;12100;44.384;20.272;2023-01-10T04:07:16;4.15;;;3.33;;
23838;SDS011;12100;44.384;20.272;2023-01-10T04:09:42;4.00;;;3.40;;
23838;SDS011;12100;44.384;20.272;2023-01-10T04:12:08;5.07;;;4.03;;
23838;SDS011;12100;44.384;20.272;2023-01-10T04:14:34;4.20;;;3.22;;
23838;SDS011;12100;44.384;20.272;2023-01-10T04:17:00;3.42;;;3.10;;
23838;SDS011;12100;44.384;20.272;2023-01-10T04:19:25;3.83;;;3.42;;
23838;SDS011;12100;44.384;20.272;2023-01-10T04:21:51;4.30;;;3.55;;
23838;SDS011;12100;44.384;20.272;2023-01-10T04:24:17;3.47;;;3.13;;
23838;SDS011;12100;44.384;20.272;2023-01-10T04:26:42;3.90;;;3.30;;
23838;SDS011;12100;44.384;20.272;2023-01-10T04:29:08;4.10;;;3.08;;
23838;SDS011;12100;44.384;20.272;2023-01-10T04:31:34;3.35;;;3.05;;
23838;SDS011;12100;44.384;20.272;2023-01-10T04:34:00;4.35;;;3.28;;
23838;SDS011;12100;44.384;20.272;2023-01-10T04:36:26;3.30;;;2.60;;
23838;SDS011;12100;44.384;20.272;2023-01-10T04:38:52;4.70;;;4.13;;
23838;SDS011;12100;44.384;20.272;2023-01-10T04:41:17;4.55;;;4.00;;
23838;SDS011;12100;44.384;20.272;2023-01-10T04:43:43;5.07;;;3.80;;
23838;SDS011;12100;44.384;20.272;2023-01-10T04:46:09;3.78;;;3.00;;
23838;SDS011;12100;44.384;20.272;2023-01-10T04:48:34;3.88;;;3.10;;
23838;SDS011;12100;44.384;20.272;2023-01-10T04:51:01;4.40;;;2.97;;
23838;SDS011;12100;44.384;20.272;2023-01-10T04:53:27;3.10;;;2.78;;
23838;SDS011;12100;44.384;20.272;2023-01-10T04:55:53;3.10;;;2.60;;
23838;SDS011;12100;44.384;20.272;2023-01-10T04:58:18;3.45;;;2.50;;
23838;SDS011;12100;44.384;20.272;2023-01-10T05:00:44;2.65;;;2.28;;
23838;SDS011;12100;44.384;20.272;2023-01-10T05:03:10;3.50;;;3.20;;
23838;SDS011;12100;44.384;20.272;2023-01-10T05:05:36;5.93;;;4.45;;
23838;SDS011;12100;44.384;20.272;2023-01-10T05:08:01;3.20;;;2.90;;
23838;SDS011;12100;44.384;20.272;2023-01-10T05:10:27;3.35;;;2.90;;
23838;SDS011;12100;44.384;20.272;2023-01-10T05:12:53;4.00;;;2.90;;
23838;SDS011;12100;44.384;20.272;2023-01-10T05:15:18;3.80;;;3.22;;
23838;SDS011;12100;44.384;20.272;2023-01-10T05:17:46;4.03;;;3.25;;
23838;SDS011;12100;44.384;20.272;2023-01-10T05:20:12;5.30;;;3.55;;
23838;SDS011;12100;44.384;20.272;2023-01-10T05:22:37;4.43;;;3.22;;
23838;SDS011;12100;44.384;20.272;2023-01-10T05:25:03;10.85;;;8.35;;
23838;SDS011;12100;44.384;20.272;2023-01-10T05:27:30;21.67;;;11.70;;
23838;SDS011;12100;44.384;20.272;2023-01-10T05:29:56;7.40;;;5.07;;
23838;SDS011;12100;44.384;20.272;2023-01-10T05:32:21;8.65;;;6.25;;
23838;SDS011;12100;44.384;20.272;2023-01-10T05:34:47;5.00;;;4.47;;
23838;SDS011;12100;44.384;20.272;2023-01-10T05:37:13;4.35;;;3.67;;
23838;SDS011;12100;44.384;20.272;2023-01-10T05:39:39;5.75;;;3.83;;
23838;SDS011;12100;44.384;20.272;2023-01-10T05:42:05;3.78;;;2.97;;
23838;SDS011;12100;44.384;20.272;2023-01-10T05:44:31;3.13;;;2.83;;
23838;SDS011;12100;44.384;20.272;2023-01-10T05:46:57;4.55;;;3.22;;
23838;SDS011;12100;44.384;20.272;2023-01-10T05:49:22;2.75;;;2.20;;
23838;SDS011;12100;44.384;20.272;2023-01-10T05:51:48;3.45;;;3.05;;
23838;SDS011;12100;44.384;20.272;2023-01-10T05:54:14;4.93;;;3.50;;
23838;SDS011;12100;44.384;20.272;2023-01-10T05:56:39;4.22;;;3.83;;
23838;SDS011;12100;44.384;20.272;2023-01-10T05:59:05;5.05;;;3.63;;
23838;SDS011;12100;44.384;20.272;2023-01-10T06:01:31;5.43;;;4.55;;
23838;SDS011;12100;44.384;20.272;2023-01-10T06:03:56;5.55;;;4.88;;
23838;SDS011;12100;44.384;20.272;2023-01-10T06:06:22;5.55;;;4.38;;
23838;SDS011;12100;44.384;20.272;2023-01-10T06:08:48;9.98;;;6.50;;
23838;SDS011;12100;44.384;20.272;2023-01-10T06:11:14;4.90;;;3.35;;
23838;SDS011;12100;44.384;20.272;2023-01-10T06:13:40;7.80;;;5.38;;
23838;SDS011;12100;44.384;20.272;2023-01-10T06:16:06;5.90;;;4.60;;
23838;SDS011;12100;44.384;20.272;2023-01-10T06:18:31;7.95;;;5.70;;
23838;SDS011;12100;44.384;20.272;2023-01-10T06:20:57;6.13;;;4.45;;
23838;SDS011;12100;44.384;20.272;2023-01-10T06:23:23;5.45;;;4.47;;
23838;SDS011;12100;44.384;20.272;2023-01-10T06:25:49;8.93;;;5.88;;
23838;SDS011;12100;44.384;20.272;2023-01-10T06:28:15;5.05;;;4.47;;
23838;SDS011;12100;44.384;20.272;2023-01-10T06:30:41;6.97;;;5.38;;
23838;SDS011;12100;44.384;20.272;2023-01-10T06:33:08;7.63;;;6.00;;
23838;SDS011;12100;44.384;20.272;2023-01-10T06:35:34;6.65;;;5.22;;
23838;SDS011;12100;44.384;20.272;2023-01-10T06:38:00;12.07;;;7.85;;
23838;SDS011;12100;44.384;20.272;2023-01-10T06:40:26;9.15;;;6.90;;
23838;SDS011;12100;44.384;20.272;2023-01-10T06:42:52;10.77;;;7.63;;
23838;SDS011;12100;44.384;20.272;2023-01-10T06:45:18;6.28;;;5.55;;
23838;SDS011;12100;44.384;20.272;2023-01-10T06:47:44;4.00;;;3.60;;
23838;SDS011;12100;44.384;20.272;2023-01-10T06:50:10;4.18;;;3.55;;
23838;SDS011;12100;44.384;20.272;2023-01-10T06:52:36;37.80;;;18.60;;
23838;SDS011;12100;44.384;20.272;2023-01-10T06:55:03;8.30;;;5.20;;
23838;SDS011;12100;44.384;20.272;2023-01-10T06:57:29;10.77;;;7.05;;
23838;SDS011;12100;44.384;20.272;2023-01-10T06:59:58;17.17;;;10.65;;
23838;SDS011;12100;44.384;20.272;2023-01-10T07:02:23;7.22;;;5.65;;
23838;SDS011;12100;44.384;20.272;2023-01-10T07:04:49;5.78;;;4.25;;
23838;SDS011;12100;44.384;20.272;2023-01-10T07:07:15;20.88;;;13.90;;
23838;SDS011;12100;44.384;20.272;2023-01-10T07:09:41;9.45;;;6.63;;
23838;SDS011;12100;44.384;20.272;2023-01-10T07:12:06;21.30;;;11.18;;
23838;SDS011;12100;44.384;20.272;2023-01-10T07:14:32;13.73;;;7.18;;
23838;SDS011;12100;44.384;20.272;2023-01-10T07:16:58;19.05;;;9.30;;
23838;SDS011;12100;44.384;20.272;2023-01-10T07:19:23;9.90;;;5.13;;
23838;SDS011;12100;44.384;20.272;2023-01-10T07:21:49;33.75;;;13.90;;
23838;SDS011;12100;44.384;20.272;2023-01-10T07:24:15;20.40;;;8.93;;
23838;SDS011;12100;44.384;20.272;2023-01-10T07:26:41;4.68;;;3.25;;
23838;SDS011;12100;44.384;20.272;2023-01-10T07:29:06;4.72;;;3.70;;
23838;SDS011;12100;44.384;20.272;2023-01-10T07:31:32;6.22;;;5.18;;
23838;SDS011;12100;44.384;20.272;2023-01-10T07:33:58;15.77;;;11.90;;
23838;SDS011;12100;44.384;20.272;2023-01-10T07:36:24;20.08;;;9.55;;
23838;SDS011;12100;44.384;20.272;2023-01-10T07:38:49;27.50;;;11.18;;
23838;SDS011;12100;44.384;20.272;2023-01-10T07:41:15;9.23;;;4.47;;
23838;SDS011;12100;44.384;20.272;2023-01-10T07:43:41;17.55;;;13.38;;
23838;SDS011;12100;44.384;20.272;2023-01-10T07:46:07;30.83;;;22.98;;
23838;SDS011;12100;44.384;20.272;2023-01-10T07:48:36;28.27;;;21.33;;
23838;SDS011;12100;44.384;20.272;2023-01-10T07:51:03;13.25;;;9.02;;
23838;SDS011;12100;44.384;20.272;2023-01-10T07:53:29;9.55;;;8.15;;
23838;SDS011;12100;44.384;20.272;2023-01-10T07:55:59;12.57;;;9.27;;
23838;SDS011;12100;44.384;20.272;2023-01-10T07:58:26;34.55;;;23.90;;
23838;SDS011;12100;44.384;20.272;2023-01-10T08:00:56;31.88;;;20.38;;
23838;SDS011;12100;44.384;20.272;2023-01-10T08:03:22;75.95;;;46.65;;
23838;SDS011;12100;44.384;20.272;2023-01-10T08:05:48;32.45;;;20.83;;
23838;SDS011;12100;44.384;20.272;2023-01-10T08:08:14;41.90;;;24.77;;
23838;SDS011;12100;44.384;20.272;2023-01-10T08:10:41;42.00;;;29.40;;
23838;SDS011;12100;44.384;20.272;2023-01-10T08:13:07;26.77;;;20.38;;
23838;SDS011;12100;44.384;20.272;2023-01-10T08:15:32;58.90;;;39.28;;
23838;SDS011;12100;44.384;20.272;2023-01-10T08:18:00;28.98;;;18.15;;
23838;SDS011;12100;44.384;20.272;2023-01-10T08:20:27;43.15;;;29.92;;
23838;SDS011;12100;44.384;20.272;2023-01-10T08:22:56;71.53;;;51.90;;
23838;SDS011;12100;44.384;20.272;2023-01-10T08:25:22;42.20;;;32.05;;
23838;SDS011;12100;44.384;20.272;2023-01-10T08:27:48;9.73;;;8.23;;
23838;SDS011;12100;44.384;20.272;2023-01-10T08:30:14;7.63;;;6.85;;
23838;SDS011;12100;44.384;20.272;2023-01-10T08:32:40;33.88;;;29.58;;
23838;SDS011;12100;44.384;20.272;2023-01-10T08:35:06;27.58;;;22.83;;
23838;SDS011;12100;44.384;20.272;2023-01-10T08:37:32;7.07;;;5.95;;
23838;SDS011;12100;44.384;20.272;2023-01-10T08:39:59;14.43;;;11.73;;
23838;SDS011;12100;44.384;20.272;2023-01-10T08:42:25;7.03;;;6.18;;
23838;SDS011;12100;44.384;20.272;2023-01-10T08:44:51;20.30;;;17.15;;
23838;SDS011;12100;44.384;20.272;2023-01-10T08:47:16;12.50;;;8.95;;
23838;SDS011;12100;44.384;20.272;2023-01-10T08:49:42;15.10;;;12.18;;
23838;SDS011;12100;44.384;20.272;2023-01-10T08:52:08;10.75;;;8.50;;
23838;SDS011;12100;44.384;20.272;2023-01-10T08:54:34;6.55;;;5.47;;
23838;SDS011;12100;44.384;20.272;2023-01-10T08:56:59;6.85;;;6.00;;
23838;SDS011;12100;44.384;20.272;2023-01-10T08:59:25;8.80;;;6.63;;
23838;SDS011;12100;44.384;20.272;2023-01-10T09:01:51;9.60;;;8.60;;
23838;SDS011;12100;44.384;20.272;2023-01-10T09:04:17;9.63;;;8.73;;
23838;SDS011;12100;44.384;20.272;2023-01-10T09:06:42;8.68;;;7.78;;
23838;SDS011;12100;44.384;20.272;2023-01-10T09:09:08;12.98;;;11.68;;
23838;SDS011;12100;44.384;20.272;2023-01-10T09:11:34;9.45;;;8.45;;
23838;SDS011;12100;44.384;20.272;2023-01-10T09:14:00;8.25;;;7.43;;
23838;SDS011;12100;44.384;20.272;2023-01-10T09:16:26;8.27;;;7.43;;
23838;SDS011;12100;44.384;20.272;2023-01-10T09:18:51;9.35;;;8.30;;
23838;SDS011;12100;44.384;20.272;2023-01-10T09:21:19;7.85;;;6.90;;
23838;SDS011;12100;44.384;20.272;2023-01-10T09:23:45;7.60;;;6.55;;
23838;SDS011;12100;44.384;20.272;2023-01-10T09:26:11;6.88;;;5.85;;
23838;SDS011;12100;44.384;20.272;2023-01-10T09:28:36;6.13;;;5.53;;
23838;SDS011;12100;44.384;20.272;2023-01-10T09:31:02;5.18;;;4.47;;
23838;SDS011;12100;44.384;20.272;2023-01-10T09:33:29;4.70;;;4.30;;
23838;SDS011;12100;44.384;20.272;2023-01-10T09:35:58;5.60;;;4.85;;
23838;SDS011;12100;44.384;20.272;2023-01-10T09:38:24;5.05;;;4.50;;
23838;SDS011;12100;44.384;20.272;2023-01-10T09:46:49;3.42;;;3.10;;
23838;SDS011;12100;44.384;20.272;2023-01-10T09:52:22;3.80;;;3.15;;
23838;SDS011;12100;44.384;20.272;2023-01-10T09:54:54;2.58;;;2.30;;
23838;SDS011;12100;44.384;20.272;2023-01-10T09:57:22;3.13;;;2.20;;
23838;SDS011;12100;44.384;20.272;2023-01-10T09:59:50;2.80;;;2.40;;
23838;SDS011;12100;44.384;20.272;2023-01-10T10:02:21;3.30;;;2.60;;
23838;SDS011;12100;44.384;20.272;2023-01-10T10:07:27;3.30;;;2.10;;
23838;SDS011;12100;44.384;20.272;2023-01-10T10:09:53;2.80;;;2.10;;
23838;SDS011;12100;44.384;20.272;2023-01-10T10:18:07;2.97;;;2.67;;
23838;SDS011;12100;44.384;20.272;2023-01-10T10:26:31;16.02;;;12.02;;
23838;SDS011;12100;44.384;20.272;2023-01-10T10:31:53;17.92;;;11.32;;
23838;SDS011;12100;44.384;20.272;2023-01-10T10:37:12;5.47;;;4.97;;
23838;SDS011;12100;44.384;20.272;2023-01-10T10:40:05;5.50;;;5.00;;
23838;SDS011;12100;44.384;20.272;2023-01-10T10:42:37;6.40;;;5.80;;
23838;SDS011;12100;44.384;20.272;2023-01-10T10:45:14;4.32;;;3.92;;
23838;SDS011;12100;44.384;20.272;2023-01-10T10:47:41;5.22;;;3.70;;
23838;SDS011;12100;44.384;20.272;2023-01-10T10:52:49;3.75;;;3.33;;
23838;SDS011;12100;44.384;20.272;2023-01-10T10:55:16;5.60;;;4.43;;
23838;SDS011;12100;44.384;20.272;2023-01-10T10:57:53;8.10;;;5.40;;
23838;SDS011;12100;44.384;20.272;2023-01-10T11:00:19;20.23;;;11.65;;
23838;SDS011;12100;44.384;20.272;2023-01-10T11:02:57;9.73;;;5.97;;
23838;SDS011;12100;44.384;20.272;2023-01-10T11:05:38;40.45;;;17.30;;
23838;SDS011;12100;44.384;20.272;2023-01-10T11:08:06;17.83;;;8.48;;
23838;SDS011;12100;44.384;20.272;2023-01-10T11:10:37;21.30;;;9.63;;
23838;SDS011;12100;44.384;20.272;2023-01-10T11:13:52;9.85;;;5.80;;
23838;SDS011;12100;44.384;20.272;2023-01-10T11:15:54;18.13;;;10.70;;
23838;SDS011;12100;44.384;20.272;2023-01-10T11:18:20;16.23;;;10.30;;
23838;SDS011;12100;44.384;20.272;2023-01-10T11:23:40;11.70;;;8.07;;
23838;SDS011;12100;44.384;20.272;2023-01-10T11:26:22;13.93;;;9.43;;
23838;SDS011;12100;44.384;20.272;2023-01-10T11:28:51;88.22;;;52.83;;
23838;SDS011;12100;44.384;20.272;2023-01-10T11:31:32;26.67;;;16.85;;
23838;SDS011;12100;44.384;20.272;2023-01-10T11:34:02;19.27;;;12.25;;
23838;SDS011;12100;44.384;20.272;2023-01-10T11:36:52;42.20;;;27.05;;
23838;SDS011;12100;44.384;20.272;2023-01-10T11:39:40;32.83;;;19.70;;
23838;SDS011;12100;44.384;20.272;2023-01-10T11:42:27;80.55;;;46.92;;
23838;SDS011;12100;44.384;20.272;2023-01-10T11:47:43;64.75;;;35.78;;
23838;SDS011;12100;44.384;20.272;2023-01-10T11:50:16;104.82;;;47.35;;
23838;SDS011;12100;44.384;20.272;2023-01-10T11:52:49;50.88;;;37.97;;
23838;SDS011;12100;44.384;20.272;2023-01-10T11:55:20;9.90;;;7.70;;
23838;SDS011;12100;44.384;20.272;2023-01-10T11:57:54;9.20;;;7.23;;
23838;SDS011;12100;44.384;20.272;2023-01-10T12:05:56;66.53;;;36.07;;
23838;SDS011;12100;44.384;20.272;2023-01-10T12:08:28;66.43;;;37.83;;
23838;SDS011;12100;44.384;20.272;2023-01-10T12:11:05;32.65;;;19.13;;
23838;SDS011;12100;44.384;20.272;2023-01-10T12:13:44;33.72;;;22.70;;
23838;SDS011;12100;44.384;20.272;2023-01-10T12:18:43;24.08;;;17.23;;
23838;SDS011;12100;44.384;20.272;2023-01-10T12:21:10;16.13;;;10.20;;
23838;SDS011;12100;44.384;20.272;2023-01-10T12:23:38;21.83;;;16.10;;
23838;SDS011;12100;44.384;20.272;2023-01-10T12:26:08;13.25;;;9.85;;
23838;SDS011;12100;44.384;20.272;2023-01-10T12:28:40;20.15;;;15.38;;
23838;SDS011;12100;44.384;20.272;2023-01-10T12:31:13;17.70;;;12.38;;
23838;SDS011;12100;44.384;20.272;2023-01-10T12:33:42;34.63;;;22.90;;
23838;SDS011;12100;44.384;20.272;2023-01-10T12:44:30;21.95;;;15.88;;
23838;SDS011;12100;44.384;20.272;2023-01-10T12:47:02;19.38;;;13.80;;
23838;SDS011;12100;44.384;20.272;2023-01-10T12:49:37;14.27;;;10.23;;
23838;SDS011;12100;44.384;20.272;2023-01-10T12:52:34;10.95;;;7.95;;
23838;SDS011;12100;44.384;20.272;2023-01-10T12:55:13;15.15;;;11.98;;
23838;SDS011;12100;44.384;20.272;2023-01-10T12:57:43;18.65;;;14.73;;
23838;SDS011;12100;44.384;20.272;2023-01-10T13:00:19;17.80;;;12.27;;
23838;SDS011;12100;44.384;20.272;2023-01-10T13:02:50;16.08;;;9.63;;
23838;SDS011;12100;44.384;20.272;2023-01-10T13:05:22;15.27;;;11.07;;
23838;SDS011;12100;44.384;20.272;2023-01-10T13:07:51;17.85;;;14.57;;
23838;SDS011;12100;44.384;20.272;2023-01-10T13:10:23;15.45;;;10.85;;
23838;SDS011;12100;44.384;20.272;2023-01-10T13:15:38;17.50;;;12.70;;
23838;SDS011;12100;44.384;20.272;2023-01-10T13:20:41;31.10;;;18.85;;
23838;SDS011;12100;44.384;20.272;2023-01-10T13:23:20;38.25;;;21.13;;
23838;SDS011;12100;44.384;20.272;2023-01-10T13:26:15;71.93;;;40.15;;
23838;SDS011;12100;44.384;20.272;2023-01-10T13:28:42;44.33;;;25.35;;
23838;SDS011;12100;44.384;20.272;2023-01-10T13:31:21;25.63;;;16.27;;
23838;SDS011;12100;44.384;20.272;2023-01-10T13:33:59;46.15;;;30.90;;
23838;SDS011;12100;44.384;20.272;2023-01-10T13:36:28;157.23;;;99.63;;
23838;SDS011;12100;44.384;20.272;2023-01-10T13:39:03;49.55;;;39.80;;
23838;SDS011;12100;44.384;20.272;2023-01-10T14:06:15;13.55;;;9.48;;
23838;SDS011;12100;44.384;20.272;2023-01-10T14:08:52;15.45;;;10.48;;
23838;SDS011;12100;44.384;20.272;2023-01-10T14:11:20;24.25;;;14.63;;
23838;SDS011;12100;44.384;20.272;2023-01-10T14:13:50;19.25;;;11.48;;
23838;SDS011;12100;44.384;20.272;2023-01-10T14:16:34;20.98;;;13.27;;
23838;SDS011;12100;44.384;20.272;2023-01-10T14:19:04;27.02;;;16.20;;
23838;SDS011;12100;44.384;20.272;2023-01-10T14:21:45;23.48;;;14.32;;
23838;SDS011;12100;44.384;20.272;2023-01-10T14:24:19;27.95;;;16.80;;
23838;SDS011;12100;44.384;20.272;2023-01-10T14:27:15;23.58;;;15.27;;
23838;SDS011;12100;44.384;20.272;2023-01-10T14:29:50;23.42;;;15.18;;
23838;SDS011;12100;44.384;20.272;2023-01-10T14:32:33;25.40;;;16.67;;
23838;SDS011;12100;44.384;20.272;2023-01-10T14:35:05;13.45;;;10.00;;
23838;SDS011;12100;44.384;20.272;2023-01-10T14:37:38;32.65;;;22.48;;
23838;SDS011;12100;44.384;20.272;2023-01-10T14:40:24;41.58;;;28.08;;
23838;SDS011;12100;44.384;20.272;2023-01-10T14:42:59;383.10;;;242.70;;
23838;SDS011;12100;44.384;20.272;2023-01-10T14:45:35;310.15;;;182.07;;
23838;SDS011;12100;44.384;20.272;2023-01-10T14:56:45;183.32;;;113.85;;
23838;SDS011;12100;44.384;20.272;2023-01-10T15:01:48;124.65;;;78.53;;
23838;SDS011;12100;44.384;20.272;2023-01-10T15:04:17;57.22;;;45.50;;
23838;SDS011;12100;44.384;20.272;2023-01-10T15:09:20;55.78;;;36.83;;
23838;SDS011;12100;44.384;20.272;2023-01-10T15:11:46;130.00;;;80.03;;
23838;SDS011;12100;44.384;20.272;2023-01-10T15:14:15;319.00;;;172.00;;
23838;SDS011;12100;44.384;20.272;2023-01-10T15:16:43;208.48;;;116.22;;
23838;SDS011;12100;44.384;20.272;2023-01-10T15:19:20;50.30;;;27.13;;
23838;SDS011;12100;44.384;20.272;2023-01-10T15:21:47;126.63;;;58.83;;
23838;SDS011;12100;44.384;20.272;2023-01-10T15:27:02;149.60;;;65.25;;
23838;SDS011;12100;44.384;20.272;2023-01-10T15:29:31;129.63;;;60.67;;
23838;SDS011;12100;44.384;20.272;2023-01-10T15:32:08;151.48;;;65.00;;
23838;SDS011;12100;44.384;20.272;2023-01-10T15:34:38;199.60;;;80.25;;
23838;SDS011;12100;44.384;20.272;2023-01-10T15:37:06;243.95;;;97.93;;
23838;SDS011;12100;44.384;20.272;2023-01-10T15:39:43;212.88;;;86.82;;
23838;SDS011;12100;44.384;20.272;2023-01-10T15:42:11;211.93;;;78.00;;
23838;SDS011;12100;44.384;20.272;2023-01-10T15:44:41;114.00;;;46.78;;
23838;SDS011;12100;44.384;20.272;2023-01-10T15:47:50;231.13;;;101.72;;
23838;SDS011;12100;44.384;20.272;2023-01-10T15:52:51;271.35;;;124.53;;
23838;SDS011;12100;44.384;20.272;2023-01-10T15:58:26;213.98;;;84.93;;
23838;SDS011;12100;44.384;20.272;2023-01-10T16:00:59;228.10;;;102.10;;
23838;SDS011;12100;44.384;20.272;2023-01-10T16:06:02;474.42;;;189.88;;
23838;SDS011;12100;44.384;20.272;2023-01-10T16:08:34;96.60;;;43.90;;
23838;SDS011;12100;44.384;20.272;2023-01-10T16:11:04;146.73;;;58.70;;
23838;SDS011;12100;44.384;20.272;2023-01-10T16:13:31;558.00;;;201.18;;
23838;SDS011;12100;44.384;20.272;2023-01-10T16:16:00;382.42;;;130.10;;
23838;SDS011;12100;44.384;20.272;2023-01-10T16:18:29;246.80;;;79.82;;
23838;SDS011;12100;44.384;20.272;2023-01-10T16:20:56;212.63;;;72.93;;
23838;SDS011;12100;44.384;20.272;2023-01-10T16:23:25;583.20;;;223.27;;
23838;SDS011;12100;44.384;20.272;2023-01-10T16:25:56;182.63;;;70.45;;
23838;SDS011;12100;44.384;20.272;2023-01-10T16:28:24;343.08;;;124.85;;
23838;SDS011;12100;44.384;20.272;2023-01-10T16:30:53;448.95;;;152.60;;
23838;SDS011;12100;44.384;20.272;2023-01-10T16:33:19;385.90;;;135.07;;
23838;SDS011;12100;44.384;20.272;2023-01-10T16:35:52;215.38;;;81.75;;
23838;SDS011;12100;44.384;20.272;2023-01-10T16:38:19;504.17;;;186.32;;
23838;SDS011;12100;44.384;20.272;2023-01-10T16:40:47;201.52;;;85.55;;
23838;SDS011;12100;44.384;20.272;2023-01-10T16:43:16;197.00;;;86.45;;
23838;SDS011;12100;44.384;20.272;2023-01-10T16:45:43;220.52;;;88.63;;
23838;SDS011;12100;44.384;20.272;2023-01-10T16:48:09;294.15;;;121.82;;
23838;SDS011;12100;44.384;20.272;2023-01-10T16:50:35;198.57;;;81.13;;
23838;SDS011;12100;44.384;20.272;2023-01-10T16:53:01;451.17;;;178.35;;
23838;SDS011;12100;44.384;20.272;2023-01-10T16:55:38;333.10;;;129.07;;
23838;SDS011;12100;44.384;20.272;2023-01-10T16:58:13;138.07;;;58.35;;
23838;SDS011;12100;44.384;20.272;2023-01-10T17:00:40;111.57;;;49.35;;
23838;SDS011;12100;44.384;20.272;2023-01-10T17:03:10;695.03;;;271.20;;
23838;SDS011;12100;44.384;20.272;2023-01-10T17:05:39;249.05;;;86.43;;